sensor_id;sensor_type;location;lat;lon;timestamp;pressure;altitude;pressure_sealevel;temperature;humidity
12803;BME280;6465;42.700;23.278;2024-03-29T00:00:35;94749.69;;;13.16;52.58
12803;BME280;6465;42.700;23.278;2024-03-29T00:03:02;94740.44;;;12.96;52.87
12803;BME280;6465;42.700;23.278;2024-03-29T00:05:28;94748.34;;;13.08;52.46
12803;BME280;6465;42.700;23.278;2024-03-29T00:07:54;94765.56;;;13.00;52.84
12803;BME280;6465;42.700;23.278;2024-03-29T00:10:20;94765.03;;;12.95;53.04
12803;BME280;6465;42.700;23.278;2024-03-29T00:12:46;94761.56;;;12.94;53.02
12803;BME280;6465;42.700;23.278;2024-03-29T00:15:12;94771.88;;;12.97;52.84
12803;BME280;6465;42.700;23.278;2024-03-29T00:17:38;94774.66;;;13.08;52.59
12803;BME280;6465;42.700;23.278;2024-03-29T00:20:07;94771.56;;;13.02;52.46
12803;BME280;6465;42.700;23.278;2024-03-29T00:22:33;94767.75;;;12.93;52.91
12803;BME280;6465;42.700;23.278;2024-03-29T00:24:59;94771.66;;;13.00;52.82
12803;BME280;6465;42.700;23.278;2024-03-29T00:27:24;94785.47;;;13.04;52.86
12803;BME280;6465;42.700;23.278;2024-03-29T00:29:51;94783.97;;;13.00;52.88
12803;BME280;6465;42.700;23.278;2024-03-29T00:32:17;94782.19;;;13.00;52.68
12803;BME280;6465;42.700;23.278;2024-03-29T00:34:43;94773.56;;;12.98;52.94
12803;BME280;6465;42.700;23.278;2024-03-29T00:37:11;94778.06;;;12.96;52.59
12803;BME280;6465;42.700;23.278;2024-03-29T00:39:37;94777.22;;;12.96;52.76
12803;BME280;6465;42.700;23.278;2024-03-29T00:42:03;94777.09;;;12.85;53.11
12803;BME280;6465;42.700;23.278;2024-03-29T00:44:30;94784.03;;;12.86;53.02
12803;BME280;6465;42.700;23.278;2024-03-29T00:46:56;94782.25;;;12.86;53.04
12803;BME280;6465;42.700;23.278;2024-03-29T00:49:22;94791.75;;;12.75;53.44
12803;BME280;6465;42.700;23.278;2024-03-29T00:51:47;94787.72;;;12.69;53.70
12803;BME280;6465;42.700;23.278;2024-03-29T00:54:15;94791.28;;;12.68;53.50
12803;BME280;6465;42.700;23.278;2024-03-29T00:56:41;94793.38;;;12.63;53.58
12803;BME280;6465;42.700;23.278;2024-03-29T00:59:07;94778.09;;;12.55;53.61
12803;BME280;6465;42.700;23.278;2024-03-29T01:01:32;94785.41;;;12.64;53.53
12803;BME280;6465;42.700;23.278;2024-03-29T01:03:58;94787.56;;;12.58;53.66
12803;BME280;6465;42.700;23.278;2024-03-29T01:06:24;94784.75;;;12.47;54.13
12803;BME280;6465;42.700;23.278;2024-03-29T01:08:50;94779.56;;;12.59;53.70
12803;BME280;6465;42.700;23.278;2024-03-29T01:11:18;94780.41;;;12.60;53.63
12803;BME280;6465;42.700;23.278;2024-03-29T01:13:44;94781.66;;;12.54;53.70
12803;BME280;6465;42.700;23.278;2024-03-29T01:16:09;94781.47;;;12.57;53.45
12803;BME280;6465;42.700;23.278;2024-03-29T01:18:35;94775.00;;;12.49;53.83
12803;BME280;6465;42.700;23.278;2024-03-29T01:21:01;94780.25;;;12.49;53.68
12803;BME280;6465;42.700;23.278;2024-03-29T01:23:27;94780.63;;;12.57;53.44
12803;BME280;6465;42.700;23.278;2024-03-29T01:25:53;94785.88;;;12.57;53.54
12803;BME280;6465;42.700;23.278;2024-03-29T01:28:20;94783.69;;;12.63;53.28
12803;BME280;6465;42.700;23.278;2024-03-29T01:30:51;94775.38;;;12.57;53.16
12803;BME280;6465;42.700;23.278;2024-03-29T01:33:18;94778.53;;;12.62;53.28
12803;BME280;6465;42.700;23.278;2024-03-29T01:35:43;94781.91;;;12.64;53.11
12803;BME280;6465;42.700;23.278;2024-03-29T01:38:09;94777.75;;;12.74;52.95
12803;BME280;6465;42.700;23.278;2024-03-29T01:40:35;94785.94;;;12.69;53.05
12803;BME280;6465;42.700;23.278;2024-03-29T01:43:01;94781.53;;;12.70;52.94
12803;BME280;6465;42.700;23.278;2024-03-29T01:45:29;94797.69;;;12.64;53.27
12803;BME280;6465;42.700;23.278;2024-03-29T01:47:56;94798.44;;;12.66;53.13
12803;BME280;6465;42.700;23.278;2024-03-29T01:50:23;94796.84;;;12.63;53.26
12803;BME280;6465;42.700;23.278;2024-03-29T01:52:51;94799.25;;;12.66;53.33
12803;BME280;6465;42.700;23.278;2024-03-29T01:55:18;94798.84;;;12.87;52.71
12803;BME280;6465;42.700;23.278;2024-03-29T01:57:45;94804.16;;;12.73;52.97
12803;BME280;6465;42.700;23.278;2024-03-29T02:00:13;94812.94;;;12.86;52.74
12803;BME280;6465;42.700;23.278;2024-03-29T02:02:41;94823.19;;;12.76;53.04
12803;BME280;6465;42.700;23.278;2024-03-29T02:05:09;94826.09;;;12.72;53.14
12803;BME280;6465;42.700;23.278;2024-03-29T02:07:36;94838.31;;;12.73;53.30
12803;BME280;6465;42.700;23.278;2024-03-29T02:10:05;94853.38;;;12.83;53.13
12803;BME280;6465;42.700;23.278;2024-03-29T02:12:33;94850.59;;;12.72;53.24
12803;BME280;6465;42.700;23.278;2024-03-29T02:14:59;94861.84;;;12.74;53.24
12803;BME280;6465;42.700;23.278;2024-03-29T02:17:28;94878.06;;;12.81;53.35
12803;BME280;6465;42.700;23.278;2024-03-29T02:19:56;94876.13;;;12.70;53.37
12803;BME280;6465;42.700;23.278;2024-03-29T02:22:24;94876.13;;;12.70;53.53
12803;BME280;6465;42.700;23.278;2024-03-29T02:24:53;94876.88;;;12.58;54.64
12803;BME280;6465;42.700;23.278;2024-03-29T02:27:21;94891.50;;;12.62;54.59
12803;BME280;6465;42.700;23.278;2024-03-29T02:29:48;94902.47;;;12.54;54.80
12803;BME280;6465;42.700;23.278;2024-03-29T02:32:16;94911.28;;;12.53;54.71
12803;BME280;6465;42.700;23.278;2024-03-29T02:34:43;94914.88;;;12.52;54.58
12803;BME280;6465;42.700;23.278;2024-03-29T02:37:09;94913.09;;;12.39;56.16
12803;BME280;6465;42.700;23.278;2024-03-29T02:39:36;94913.50;;;12.17;56.63
12803;BME280;6465;42.700;23.278;2024-03-29T02:44:50;94923.16;;;12.16;57.40
12803;BME280;6465;42.700;23.278;2024-03-29T02:47:18;94913.03;;;12.10;57.25
12803;BME280;6465;42.700;23.278;2024-03-29T02:49:45;94937.75;;;12.06;57.66
12803;BME280;6465;42.700;23.278;2024-03-29T02:52:11;94933.91;;;11.98;57.89
12803;BME280;6465;42.700;23.278;2024-03-29T02:54:38;94944.31;;;12.13;57.82
12803;BME280;6465;42.700;23.278;2024-03-29T02:57:05;94934.41;;;11.73;57.76
12803;BME280;6465;42.700;23.278;2024-03-29T02:59:32;94925.81;;;11.71;57.76
12803;BME280;6465;42.700;23.278;2024-03-29T03:01:58;94931.56;;;11.62;58.07
12803;BME280;6465;42.700;23.278;2024-03-29T03:04:25;94924.97;;;11.55;58.22
12803;BME280;6465;42.700;23.278;2024-03-29T03:06:51;94943.06;;;11.59;58.25
12803;BME280;6465;42.700;23.278;2024-03-29T03:09:18;94944.16;;;11.71;57.63
12803;BME280;6465;42.700;23.278;2024-03-29T03:12:05;94949.09;;;11.77;57.32
12803;BME280;6465;42.700;23.278;2024-03-29T03:14:31;94949.66;;;11.82;57.17
12803;BME280;6465;42.700;23.278;2024-03-29T03:16:58;94958.56;;;11.48;58.24
12803;BME280;6465;42.700;23.278;2024-03-29T03:19:24;94959.84;;;11.57;57.93
12803;BME280;6465;42.700;23.278;2024-03-29T03:21:51;94965.31;;;11.52;58.72
12803;BME280;6465;42.700;23.278;2024-03-29T03:24:17;94956.44;;;11.55;58.74
12803;BME280;6465;42.700;23.278;2024-03-29T03:26:44;94970.31;;;11.57;58.40
12803;BME280;6465;42.700;23.278;2024-03-29T03:29:12;94963.69;;;11.65;57.89
12803;BME280;6465;42.700;23.278;2024-03-29T03:31:39;94972.72;;;11.77;57.53
12803;BME280;6465;42.700;23.278;2024-03-29T03:34:05;94969.66;;;11.84;57.23
12803;BME280;6465;42.700;23.278;2024-03-29T03:36:32;94970.88;;;11.93;57.05
12803;BME280;6465;42.700;23.278;2024-03-29T03:38:57;94979.34;;;11.98;56.80
12803;BME280;6465;42.700;23.278;2024-03-29T03:41:24;94968.66;;;12.01;56.66
12803;BME280;6465;42.700;23.278;2024-03-29T03:43:50;94960.75;;;11.87;56.61
12803;BME280;6465;42.700;23.278;2024-03-29T03:46:19;94991.94;;;12.07;56.46
12803;BME280;6465;42.700;23.278;2024-03-29T03:48:45;94989.94;;;11.97;56.42
12803;BME280;6465;42.700;23.278;2024-03-29T03:51:12;94993.16;;;11.86;57.86
12803;BME280;6465;42.700;23.278;2024-03-29T03:53:37;95016.53;;;11.75;58.30
12803;BME280;6465;42.700;23.278;2024-03-29T03:56:05;95016.28;;;11.79;57.99
12803;BME280;6465;42.700;23.278;2024-03-29T03:58:31;95017.63;;;11.71;58.38
12803;BME280;6465;42.700;23.278;2024-03-29T04:01:03;95024.13;;;11.64;59.20
12803;BME280;6465;42.700;23.278;2024-03-29T04:03:31;95026.13;;;11.59;59.72
12803;BME280;6465;42.700;23.278;2024-03-29T04:05:58;95020.56;;;11.49;60.16
12803;BME280;6465;42.700;23.278;2024-03-29T04:08:28;95018.47;;;11.56;59.78
12803;BME280;6465;42.700;23.278;2024-03-29T04:10:55;95016.00;;;11.37;59.53
12803;BME280;6465;42.700;23.278;2024-03-29T04:13:22;95011.50;;;11.23;59.49
12803;BME280;6465;42.700;23.278;2024-03-29T04:15:49;95029.38;;;11.48;58.95
12803;BME280;6465;42.700;23.278;2024-03-29T04:18:15;95033.09;;;11.60;58.38
12803;BME280;6465;42.700;23.278;2024-03-29T04:20:43;95035.88;;;11.57;58.28
12803;BME280;6465;42.700;23.278;2024-03-29T04:23:09;95044.19;;;11.65;58.09
12803;BME280;6465;42.700;23.278;2024-03-29T04:25:36;95050.69;;;11.58;59.65
12803;BME280;6465;42.700;23.278;2024-03-29T04:28:02;95053.72;;;11.34;61.32
12803;BME280;6465;42.700;23.278;2024-03-29T04:30:29;95057.50;;;11.29;61.39
12803;BME280;6465;42.700;23.278;2024-03-29T04:32:55;95065.84;;;11.20;62.43
12803;BME280;6465;42.700;23.278;2024-03-29T04:35:22;95076.41;;;11.18;62.06
12803;BME280;6465;42.700;23.278;2024-03-29T04:37:49;95070.75;;;11.10;61.83
12803;BME280;6465;42.700;23.278;2024-03-29T04:40:17;95079.53;;;11.09;61.74
12803;BME280;6465;42.700;23.278;2024-03-29T04:42:44;95073.19;;;11.13;61.13
12803;BME280;6465;42.700;23.278;2024-03-29T04:45:11;95083.41;;;11.02;62.27
12803;BME280;6465;42.700;23.278;2024-03-29T04:47:38;95094.66;;;11.04;62.39
12803;BME280;6465;42.700;23.278;2024-03-29T04:50:06;95094.66;;;11.04;61.91
12803;BME280;6465;42.700;23.278;2024-03-29T04:52:33;95091.53;;;11.13;60.94
12803;BME280;6465;42.700;23.278;2024-03-29T04:55:02;95091.22;;;11.19;60.25
12803;BME280;6465;42.700;23.278;2024-03-29T04:57:29;95104.63;;;11.30;61.08
12803;BME280;6465;42.700;23.278;2024-03-29T04:59:55;95085.38;;;11.14;61.83
12803;BME280;6465;42.700;23.278;2024-03-29T05:02:22;95102.47;;;11.21;63.21
12803;BME280;6465;42.700;23.278;2024-03-29T05:04:49;95107.72;;;11.21;62.88
12803;BME280;6465;42.700;23.278;2024-03-29T05:07:19;95103.25;;;11.23;63.05
12803;BME280;6465;42.700;23.278;2024-03-29T05:09:45;95109.50;;;11.21;62.89
12803;BME280;6465;42.700;23.278;2024-03-29T05:12:14;95117.56;;;11.33;62.60
12803;BME280;6465;42.700;23.278;2024-03-29T05:14:41;95114.00;;;11.34;62.56
12803;BME280;6465;42.700;23.278;2024-03-29T05:17:08;95124.94;;;11.42;62.58
12803;BME280;6465;42.700;23.278;2024-03-29T05:19:35;95122.59;;;11.53;62.08
12803;BME280;6465;42.700;23.278;2024-03-29T05:22:02;95126.91;;;11.55;62.58
12803;BME280;6465;42.700;23.278;2024-03-29T05:24:29;95136.00;;;11.65;62.15
12803;BME280;6465;42.700;23.278;2024-03-29T05:26:56;95147.56;;;11.78;61.73
12803;BME280;6465;42.700;23.278;2024-03-29T05:29:24;95138.44;;;11.85;61.14
12803;BME280;6465;42.700;23.278;2024-03-29T05:31:51;95143.94;;;11.96;60.65
12803;BME280;6465;42.700;23.278;2024-03-29T05:34:18;95142.75;;;12.02;60.74
12803;BME280;6465;42.700;23.278;2024-03-29T05:36:45;95158.16;;;12.08;60.46
12803;BME280;6465;42.700;23.278;2024-03-29T05:39:12;95143.34;;;12.38;59.64
12803;BME280;6465;42.700;23.278;2024-03-29T05:41:41;95134.25;;;12.28;59.58
12803;BME280;6465;42.700;23.278;2024-03-29T05:44:08;95140.78;;;12.37;59.23
12803;BME280;6465;42.700;23.278;2024-03-29T05:46:36;95143.72;;;12.46;58.84
12803;BME280;6465;42.700;23.278;2024-03-29T05:49:03;95127.22;;;12.44;58.76
12803;BME280;6465;42.700;23.278;2024-03-29T05:51:30;95138.38;;;12.63;58.58
12803;BME280;6465;42.700;23.278;2024-03-29T05:53:57;95145.47;;;12.77;58.55
12803;BME280;6465;42.700;23.278;2024-03-29T05:56:24;95138.50;;;12.76;58.41
12803;BME280;6465;42.700;23.278;2024-03-29T05:58:51;95143.38;;;12.98;58.05
12803;BME280;6465;42.700;23.278;2024-03-29T06:01:18;95142.16;;;13.03;57.79
12803;BME280;6465;42.700;23.278;2024-03-29T06:03:46;95143.16;;;13.17;57.84
12803;BME280;6465;42.700;23.278;2024-03-29T06:06:13;95152.84;;;13.30;56.83
12803;BME280;6465;42.700;23.278;2024-03-29T06:08:43;95153.88;;;13.42;57.24
12803;BME280;6465;42.700;23.278;2024-03-29T06:11:10;95161.88;;;13.40;57.66
12803;BME280;6465;42.700;23.278;2024-03-29T06:13:37;95151.34;;;13.55;57.64
12803;BME280;6465;42.700;23.278;2024-03-29T06:16:21;95155.22;;;13.77;55.36
12803;BME280;6465;42.700;23.278;2024-03-29T06:19:07;95153.16;;;13.82;54.67
12803;BME280;6465;42.700;23.278;2024-03-29T06:21:34;95156.53;;;13.99;54.44
12803;BME280;6465;42.700;23.278;2024-03-29T06:24:04;95155.22;;;14.06;53.99
12803;BME280;6465;42.700;23.278;2024-03-29T06:26:32;95158.22;;;14.14;54.05
12803;BME280;6465;42.700;23.278;2024-03-29T06:28:59;95159.59;;;14.19;53.38
12803;BME280;6465;42.700;23.278;2024-03-29T06:31:26;95159.75;;;14.31;52.94
12803;BME280;6465;42.700;23.278;2024-03-29T06:33:53;95166.06;;;14.42;52.78
12803;BME280;6465;42.700;23.278;2024-03-29T06:36:22;95169.59;;;14.55;51.94
12803;BME280;6465;42.700;23.278;2024-03-29T06:38:49;95166.47;;;14.63;51.95
12803;BME280;6465;42.700;23.278;2024-03-29T06:41:16;95169.69;;;14.68;51.59
12803;BME280;6465;42.700;23.278;2024-03-29T06:43:43;95168.72;;;14.69;51.75
12803;BME280;6465;42.700;23.278;2024-03-29T06:46:10;95165.88;;;14.72;52.03
12803;BME280;6465;42.700;23.278;2024-03-29T06:48:37;95170.91;;;14.62;51.96
12803;BME280;6465;42.700;23.278;2024-03-29T06:51:04;95174.09;;;14.68;52.33
12803;BME280;6465;42.700;23.278;2024-03-29T06:53:33;95172.19;;;14.70;52.05
12803;BME280;6465;42.700;23.278;2024-03-29T06:56:00;95130.78;;;14.45;51.72
12803;BME280;6465;42.700;23.278;2024-03-29T06:58:27;95175.78;;;14.68;51.84
12803;BME280;6465;42.700;23.278;2024-03-29T07:00:54;95181.03;;;14.68;51.75
12803;BME280;6465;42.700;23.278;2024-03-29T07:03:21;95175.22;;;14.90;50.37
12803;BME280;6465;42.700;23.278;2024-03-29T07:05:48;95188.66;;;15.00;50.42
12803;BME280;6465;42.700;23.278;2024-03-29T07:08:15;95181.09;;;15.08;50.48
12803;BME280;6465;42.700;23.278;2024-03-29T07:10:44;95184.44;;;14.97;50.66
12803;BME280;6465;42.700;23.278;2024-03-29T07:13:11;95196.56;;;15.00;50.18
12803;BME280;6465;42.700;23.278;2024-03-29T07:15:38;95195.19;;;14.94;50.84
12803;BME280;6465;42.700;23.278;2024-03-29T07:18:05;95188.78;;;15.11;50.51
12803;BME280;6465;42.700;23.278;2024-03-29T07:20:33;95194.28;;;15.08;50.57
12803;BME280;6465;42.700;23.278;2024-03-29T07:23:00;95190.34;;;15.01;50.93
12803;BME280;6465;42.700;23.278;2024-03-29T07:25:26;95194.66;;;15.02;51.12
12803;BME280;6465;42.700;23.278;2024-03-29T07:27:55;95194.66;;;15.02;51.25
12803;BME280;6465;42.700;23.278;2024-03-29T07:30:22;95191.75;;;15.06;50.90
12803;BME280;6465;42.700;23.278;2024-03-29T07:32:49;95189.88;;;15.21;51.07
12803;BME280;6465;42.700;23.278;2024-03-29T07:35:16;95185.13;;;15.26;50.50
12803;BME280;6465;42.700;23.278;2024-03-29T07:37:44;95176.63;;;15.35;50.06
12803;BME280;6465;42.700;23.278;2024-03-29T07:40:13;95177.84;;;15.30;50.16
12803;BME280;6465;42.700;23.278;2024-03-29T07:42:40;95182.50;;;15.39;50.33
12803;BME280;6465;42.700;23.278;2024-03-29T07:45:10;95179.03;;;15.38;50.26
12803;BME280;6465;42.700;23.278;2024-03-29T07:47:37;95176.81;;;15.45;50.15
12803;BME280;6465;42.700;23.278;2024-03-29T07:50:04;95179.91;;;15.64;49.57
12803;BME280;6465;42.700;23.278;2024-03-29T07:52:31;95176.34;;;15.53;49.60
12803;BME280;6465;42.700;23.278;2024-03-29T07:54:58;95186.47;;;15.59;49.53
12803;BME280;6465;42.700;23.278;2024-03-29T07:57:26;95180.44;;;15.57;49.49
12803;BME280;6465;42.700;23.278;2024-03-29T07:59:53;95183.63;;;15.62;49.33
12803;BME280;6465;42.700;23.278;2024-03-29T08:02:22;95194.91;;;15.64;49.64
12803;BME280;6465;42.700;23.278;2024-03-29T08:04:52;95186.81;;;15.67;49.80
12803;BME280;6465;42.700;23.278;2024-03-29T08:07:19;95179.19;;;15.75;49.60
12803;BME280;6465;42.700;23.278;2024-03-29T08:09:46;95184.78;;;15.83;49.53
12803;BME280;6465;42.700;23.278;2024-03-29T08:12:13;95187.97;;;15.88;49.76
12803;BME280;6465;42.700;23.278;2024-03-29T08:14:40;95182.97;;;15.96;49.14
12803;BME280;6465;42.700;23.278;2024-03-29T08:17:07;95179.94;;;16.02;49.06
12803;BME280;6465;42.700;23.278;2024-03-29T08:19:36;95172.59;;;16.18;48.87
12803;BME280;6465;42.700;23.278;2024-03-29T08:22:06;95164.53;;;16.33;48.90
12803;BME280;6465;42.700;23.278;2024-03-29T08:24:36;95162.53;;;16.36;48.99
12803;BME280;6465;42.700;23.278;2024-03-29T08:27:03;95153.31;;;16.42;48.17
12803;BME280;6465;42.700;23.278;2024-03-29T08:29:30;95159.94;;;16.60;47.35
12803;BME280;6465;42.700;23.278;2024-03-29T08:31:57;95162.38;;;16.63;47.52
12803;BME280;6465;42.700;23.278;2024-03-29T08:34:24;95155.50;;;16.60;47.60
12803;BME280;6465;42.700;23.278;2024-03-29T08:36:54;95153.44;;;16.64;47.54
12803;BME280;6465;42.700;23.278;2024-03-29T08:39:22;95149.47;;;16.82;47.29
12803;BME280;6465;42.700;23.278;2024-03-29T08:41:49;95148.06;;;16.89;46.90
12803;BME280;6465;42.700;23.278;2024-03-29T08:44:16;95148.13;;;17.00;46.98
12803;BME280;6465;42.700;23.278;2024-03-29T08:46:43;95139.63;;;17.19;45.85
12803;BME280;6465;42.700;23.278;2024-03-29T08:49:10;95144.00;;;17.31;45.54
12803;BME280;6465;42.700;23.278;2024-03-29T08:51:37;95139.31;;;17.35;45.00
12803;BME280;6465;42.700;23.278;2024-03-29T08:54:05;95136.91;;;17.32;45.05
12803;BME280;6465;42.700;23.278;2024-03-29T08:56:32;95143.88;;;17.33;45.54
12803;BME280;6465;42.700;23.278;2024-03-29T08:59:02;95130.81;;;17.42;45.07
12803;BME280;6465;42.700;23.278;2024-03-29T09:01:33;95132.34;;;17.45;45.00
12803;BME280;6465;42.700;23.278;2024-03-29T09:04:00;95121.38;;;17.62;43.99
12803;BME280;6465;42.700;23.278;2024-03-29T09:06:26;95117.22;;;17.58;44.61
12803;BME280;6465;42.700;23.278;2024-03-29T09:08:53;95109.44;;;17.79;44.49
12803;BME280;6465;42.700;23.278;2024-03-29T09:11:22;95111.03;;;17.70;44.28
12803;BME280;6465;42.700;23.278;2024-03-29T09:13:49;95112.59;;;17.84;43.57
12803;BME280;6465;42.700;23.278;2024-03-29T09:16:16;95106.94;;;17.77;43.27
12803;BME280;6465;42.700;23.278;2024-03-29T09:18:43;95102.44;;;17.78;43.07
12803;BME280;6465;42.700;23.278;2024-03-29T09:21:10;95097.16;;;18.00;41.75
12803;BME280;6465;42.700;23.278;2024-03-29T09:23:37;95100.91;;;17.98;41.54
12803;BME280;6465;42.700;23.278;2024-03-29T09:26:07;95103.06;;;18.15;38.54
12803;BME280;6465;42.700;23.278;2024-03-29T09:28:35;95094.97;;;18.28;39.64
12803;BME280;6465;42.700;23.278;2024-03-29T09:31:02;95092.16;;;18.40;39.89
12803;BME280;6465;42.700;23.278;2024-03-29T09:33:29;95072.94;;;18.16;40.32
12803;BME280;6465;42.700;23.278;2024-03-29T09:35:56;95077.00;;;18.31;38.21
12803;BME280;6465;42.700;23.278;2024-03-29T09:38:24;95073.44;;;18.10;39.55
12803;BME280;6465;42.700;23.278;2024-03-29T09:40:58;95071.38;;;18.02;39.41
12803;BME280;6465;42.700;23.278;2024-03-29T09:43:30;95070.06;;;17.97;38.65
12803;BME280;6465;42.700;23.278;2024-03-29T09:45:59;95061.44;;;18.27;38.10
12803;BME280;6465;42.700;23.278;2024-03-29T09:48:26;95066.91;;;18.14;39.09
12803;BME280;6465;42.700;23.278;2024-03-29T09:51:03;95063.06;;;18.07;39.65
12803;BME280;6465;42.700;23.278;2024-03-29T09:53:31;95052.22;;;18.10;39.84
12803;BME280;6465;42.700;23.278;2024-03-29T09:56:00;95047.38;;;18.15;40.64
12803;BME280;6465;42.700;23.278;2024-03-29T09:58:28;95049.56;;;18.10;40.80
12803;BME280;6465;42.700;23.278;2024-03-29T10:00:55;95043.16;;;18.24;40.48
12803;BME280;6465;42.700;23.278;2024-03-29T10:03:24;95041.28;;;18.46;39.98
12803;BME280;6465;42.700;23.278;2024-03-29T10:05:56;95050.94;;;18.58;40.15
12803;BME280;6465;42.700;23.278;2024-03-29T10:08:23;95038.09;;;18.52;40.68
12803;BME280;6465;42.700;23.278;2024-03-29T10:10:51;95045.88;;;18.55;41.15
12803;BME280;6465;42.700;23.278;2024-03-29T10:13:19;95034.75;;;18.62;40.77
12803;BME280;6465;42.700;23.278;2024-03-29T10:15:46;95035.47;;;18.64;40.74
12803;BME280;6465;42.700;23.278;2024-03-29T10:18:15;95028.34;;;18.64;41.16
12803;BME280;6465;42.700;23.278;2024-03-29T10:20:58;95042.53;;;18.74;41.01
12803;BME280;6465;42.700;23.278;2024-03-29T10:23:25;95037.50;;;18.92;40.21
12803;BME280;6465;42.700;23.278;2024-03-29T10:25:52;95037.31;;;18.84;40.60
12803;BME280;6465;42.700;23.278;2024-03-29T10:28:19;95034.31;;;18.77;40.56
12803;BME280;6465;42.700;23.278;2024-03-29T10:30:46;95042.41;;;18.76;40.68
12803;BME280;6465;42.700;23.278;2024-03-29T10:33:12;95035.25;;;19.08;39.91
12803;BME280;6465;42.700;23.278;2024-03-29T10:35:41;95030.25;;;19.15;40.60
12803;BME280;6465;42.700;23.278;2024-03-29T10:38:11;95026.38;;;19.39;39.75
12803;BME280;6465;42.700;23.278;2024-03-29T10:40:39;95030.69;;;19.40;39.46
12803;BME280;6465;42.700;23.278;2024-03-29T10:43:08;95027.72;;;19.55;39.76
12803;BME280;6465;42.700;23.278;2024-03-29T10:45:38;95024.38;;;19.53;39.35
12803;BME280;6465;42.700;23.278;2024-03-29T10:48:06;95014.13;;;19.27;40.39
12803;BME280;6465;42.700;23.278;2024-03-29T10:50:35;95022.16;;;19.58;40.43
12803;BME280;6465;42.700;23.278;2024-03-29T10:53:03;95018.13;;;19.43;40.16
12803;BME280;6465;42.700;23.278;2024-03-29T10:55:33;95017.81;;;19.36;40.32
12803;BME280;6465;42.700;23.278;2024-03-29T10:58:01;95020.53;;;19.46;39.85
12803;BME280;6465;42.700;23.278;2024-03-29T11:00:29;95013.47;;;19.35;40.12
12803;BME280;6465;42.700;23.278;2024-03-29T11:03:09;95005.31;;;19.48;39.90
12803;BME280;6465;42.700;23.278;2024-03-29T11:05:44;95010.09;;;19.54;40.30
12803;BME280;6465;42.700;23.278;2024-03-29T11:08:12;95010.69;;;19.57;40.62
12803;BME280;6465;42.700;23.278;2024-03-29T11:10:43;95008.13;;;19.56;40.05
12803;BME280;6465;42.700;23.278;2024-03-29T11:13:19;95008.81;;;19.78;40.13
12803;BME280;6465;42.700;23.278;2024-03-29T11:15:50;95003.25;;;19.61;40.68
12803;BME280;6465;42.700;23.278;2024-03-29T11:18:18;95007.97;;;19.78;40.78
12803;BME280;6465;42.700;23.278;2024-03-29T11:20:47;95002.78;;;19.76;40.60
12803;BME280;6465;42.700;23.278;2024-03-29T11:23:18;95009.00;;;19.96;40.65
12803;BME280;6465;42.700;23.278;2024-03-29T11:25:49;95002.03;;;20.05;39.71
12803;BME280;6465;42.700;23.278;2024-03-29T11:28:23;94996.81;;;19.94;39.92
12803;BME280;6465;42.700;23.278;2024-03-29T11:30:53;94994.00;;;19.86;40.32
12803;BME280;6465;42.700;23.278;2024-03-29T11:33:29;94993.22;;;20.14;40.79
12803;BME280;6465;42.700;23.278;2024-03-29T11:35:56;95001.59;;;20.00;40.90
12803;BME280;6465;42.700;23.278;2024-03-29T11:38:33;94992.31;;;19.94;40.72
12803;BME280;6465;42.700;23.278;2024-03-29T11:41:03;94988.41;;;19.89;40.95
12803;BME280;6465;42.700;23.278;2024-03-29T11:43:31;94986.34;;;20.02;40.57
12803;BME280;6465;42.700;23.278;2024-03-29T11:45:59;94976.44;;;20.13;40.35
12803;BME280;6465;42.700;23.278;2024-03-29T11:48:28;94978.94;;;20.15;40.49
12803;BME280;6465;42.700;23.278;2024-03-29T11:50:54;94984.13;;;20.16;40.43
12803;BME280;6465;42.700;23.278;2024-03-29T11:53:21;94983.72;;;20.11;39.52
12803;BME280;6465;42.700;23.278;2024-03-29T11:55:48;94978.69;;;20.18;39.04
12803;BME280;6465;42.700;23.278;2024-03-29T11:58:21;94976.06;;;20.37;39.06
12803;BME280;6465;42.700;23.278;2024-03-29T12:00:49;94977.88;;;20.37;39.55
12803;BME280;6465;42.700;23.278;2024-03-29T12:03:16;94971.91;;;20.54;38.90
12803;BME280;6465;42.700;23.278;2024-03-29T12:05:44;94963.06;;;20.44;38.99
12803;BME280;6465;42.700;23.278;2024-03-29T12:08:11;94965.88;;;20.52;38.93
12803;BME280;6465;42.700;23.278;2024-03-29T12:10:38;94970.31;;;20.42;39.74
12803;BME280;6465;42.700;23.278;2024-03-29T12:13:05;94963.19;;;20.52;38.56
12803;BME280;6465;42.700;23.278;2024-03-29T12:15:34;94949.06;;;20.51;37.68
12803;BME280;6465;42.700;23.278;2024-03-29T12:18:02;94962.63;;;20.58;37.54
12803;BME280;6465;42.700;23.278;2024-03-29T12:20:31;94962.75;;;20.85;37.30
12803;BME280;6465;42.700;23.278;2024-03-29T12:22:59;94957.00;;;21.00;36.98
12803;BME280;6465;42.700;23.278;2024-03-29T12:25:27;94948.81;;;21.11;36.86
12803;BME280;6465;42.700;23.278;2024-03-29T12:27:55;94954.31;;;21.19;36.69
12803;BME280;6465;42.700;23.278;2024-03-29T12:30:22;94958.47;;;21.31;36.83
12803;BME280;6465;42.700;23.278;2024-03-29T12:33:01;94959.31;;;21.31;36.49
12803;BME280;6465;42.700;23.278;2024-03-29T12:35:28;94947.44;;;21.26;36.30
12803;BME280;6465;42.700;23.278;2024-03-29T12:37:58;94953.47;;;21.18;35.82
12803;BME280;6465;42.700;23.278;2024-03-29T12:40:25;94963.53;;;21.15;34.67
12803;BME280;6465;42.700;23.278;2024-03-29T12:42:54;94955.00;;;21.02;35.09
12803;BME280;6465;42.700;23.278;2024-03-29T12:45:21;94951.78;;;21.08;34.75
12803;BME280;6465;42.700;23.278;2024-03-29T12:47:49;94957.13;;;20.98;34.60
12803;BME280;6465;42.700;23.278;2024-03-29T12:50:19;94941.00;;;21.19;33.89
12803;BME280;6465;42.700;23.278;2024-03-29T12:52:54;94946.72;;;21.24;34.43
12803;BME280;6465;42.700;23.278;2024-03-29T12:55:22;94943.94;;;21.16;34.27
12803;BME280;6465;42.700;23.278;2024-03-29T12:57:49;94939.28;;;21.08;34.54
12803;BME280;6465;42.700;23.278;2024-03-29T13:00:18;94942.09;;;21.26;34.18
12803;BME280;6465;42.700;23.278;2024-03-29T13:02:45;94942.97;;;21.54;34.12
12803;BME280;6465;42.700;23.278;2024-03-29T13:05:12;94944.00;;;21.70;33.47